If you wish to contribute or participate in the discussions about articles you are invited to join SKYbrary as a registered user

 Actions

Middle Georgia Regional Airport

From SKYbrary Wiki

KMCN
Airport
ICAO: KMCN
Summary
Name Middle Georgia Regional Airport
Region North America
Territory United States US.gif
Location Macon, Georgia
Serving
Coordinates 32° 41' 45.65" N, 83° 38' 50.34" W
Runways
Designator Length Width Surface ROPS
5/23 1982 m6,502.625 ft
46 m150.919 ft
ASP yes/yes
13/31 1524 m5,000 ft
46 m150.919 ft
ASP yes/yes


METAR
Observation KMCN 201553Z 08007KT 10SM CLR 27/13 A3029 RMK AO2 SLP254 T02670128
Station Macon, Middle Georgia Regional Airport
Date/Time 20 September 2019 15:53:00
Wind direction 80°
Wind speed 07 kts
Lowest cloud amount n/a
Temperature 26.7°C
Dew point 12.8°C
Humidity 42%
QNH hPa
Weather condition n/a

WX
Tag(s) Cumulonimbus
Tropical Revolving Storm

Middle Georgia Regional Airport

ICAO: KMCN IATA: MCN

Description

Middle Georgia Regional Airport is public use airport located 17 km9.179 nm
17,000 m
55,774.278 ft
south of the central business district of Macon, a city in Bibb County, Georgia.

Climatology

Humid “subtropical” climate (Köppen climate classification Cfa) - characterized by hot, humid summers and cool winters. Significant amounts of precipitation occur in all seasons in most areas.

Maps

Terrain

Loading map...

Airport Layout

Loading map...


Accidents & Serious Incidents at or in vicinity of KMCN

None on SKYbrary